»·PEaware :: AAL856 KCLT-KDCA

AAL856 :: KCLT-KDCA

FLIGHT INFORMATION

Flight Status: Arrived
Operator:
American Airlines
More flights by this operator :: More flights under this callsign
Pilot: Andrew J. (13363)
Aircraft: AIRBUS A320
(A320)
More flights by this aircraft type
Origin: KCLT Charlotte/Douglas Intl
United States
Destination: KDCA Ronald Reagan Washington Natl
United States
More flights between these airports :: More routes between these airports
Route: KILNS3 AUDII WAVES CAPSS2
File this flight plan on PilotEdge
Remarks: PBN / A1B1C1D1O1S1 DOF / 171114 REG / N320US EET / KZDC0010 OPR / AAL PER / C RMK / TCAS
Altitude:
(Current/Filed)
35,000ft
Speed:
(Current/Filed)
429kts
Departed: 14-Nov-17 10:28 AM
Arrived: 14-Nov-17 11:35 AM
Distance/Time
Traveled:
287nm/1:07
Distance/Time
To Go:
Arrived

Flight Plot

Page will automatically refresh every two minutes.

Flight plan parsing failed; only flown route is shown


Map Options




Map Legend


Flown Route
Filed Route
Departure Airport
Arrival Airport
Navaid (VOR, NDB)
Fix

Horizontal Profiles

Position Reports

Time Latitude Longitude Heading Altitude Ground
Speed
14-Nov-17 09:35 35.219116 -80.942028 252 758ft 0kts
14-Nov-17 09:36 35.219116 -80.942028 252 758ft 0kts
14-Nov-17 09:37 35.219116 -80.942028 252 758ft 0kts
14-Nov-17 09:38 35.219116 -80.942028 252 758ft 0kts
14-Nov-17 09:39 35.219116 -80.942028 252 758ft 0kts
14-Nov-17 09:40 35.219116 -80.942028 252 758ft 0kts
14-Nov-17 09:41 35.219116 -80.942028 252 758ft 0kts
14-Nov-17 09:42 35.219116 -80.942028 252 758ft 0kts
14-Nov-17 09:43 35.219116 -80.942028 252 758ft 0kts
14-Nov-17 09:44 35.219116 -80.942028 252 758ft 0kts
14-Nov-17 09:45 35.219116 -80.942028 252 758ft 0kts
14-Nov-17 09:46 35.219116 -80.942028 252 758ft 0kts
14-Nov-17 09:47 35.219116 -80.942028 252 758ft 0kts
14-Nov-17 09:48 35.219116 -80.942028 252 758ft 0kts
14-Nov-17 09:49 35.219116 -80.942028 252 758ft 0kts
14-Nov-17 09:50 35.219116 -80.942028 252 758ft 0kts
14-Nov-17 09:51 35.219116 -80.942028 252 758ft 0kts
14-Nov-17 09:52 35.219116 -80.942028 252 758ft 0kts
14-Nov-17 09:53 35.219116 -80.942028 252 758ft 0kts
14-Nov-17 09:54 35.219116 -80.942028 252 758ft 0kts
14-Nov-17 09:55 35.219116 -80.942028 252 758ft 0kts
14-Nov-17 09:56 35.219116 -80.942028 252 758ft 0kts
14-Nov-17 09:57 35.219116 -80.942028 252 758ft 0kts
14-Nov-17 09:58 35.219116 -80.942028 252 758ft 0kts
14-Nov-17 09:59 35.219116 -80.942028 252 758ft 0kts
14-Nov-17 10:00 35.219116 -80.942028 252 758ft 0kts
14-Nov-17 10:01 35.219116 -80.942028 252 758ft 0kts
14-Nov-17 10:02 35.219116 -80.942028 252 758ft 0kts
14-Nov-17 10:03 35.219116 -80.942028 252 758ft 0kts
14-Nov-17 10:04 35.219116 -80.942028 252 758ft 0kts
14-Nov-17 10:05 35.219116 -80.942028 252 758ft 0kts
14-Nov-17 10:06 35.219116 -80.942028 252 758ft 0kts
14-Nov-17 10:07 35.219116 -80.942028 252 758ft 0kts
14-Nov-17 10:08 35.219116 -80.942028 252 758ft 0kts
14-Nov-17 10:09 35.219116 -80.942028 252 758ft 0kts
14-Nov-17 10:10 35.219116 -80.942028 252 758ft 0kts
14-Nov-17 10:11 35.219116 -80.942028 252 758ft 0kts
14-Nov-17 10:12 35.219116 -80.942028 252 758ft 0kts
14-Nov-17 10:13 35.219116 -80.942028 252 758ft 0kts
14-Nov-17 10:14 35.219116 -80.942028 252 758ft 0kts
14-Nov-17 10:15 35.219116 -80.942028 252 758ft 0kts
14-Nov-17 10:16 35.219116 -80.942028 252 758ft 0kts
14-Nov-17 10:17 35.219116 -80.942028 252 758ft 0kts
14-Nov-17 10:18 35.219116 -80.942028 252 758ft 0kts
14-Nov-17 10:19 35.219116 -80.942028 252 758ft 0kts
14-Nov-17 10:20 35.219305 -80.941374 248 758ft 2kts
14-Nov-17 10:21 35.219463 -80.940930 244 758ft 0kts
14-Nov-17 10:22 35.219462 -80.940931 245 758ft 0kts
14-Nov-17 10:23 35.219462 -80.940931 245 758ft 0kts
14-Nov-17 10:24 35.219068 -80.940880 136 758ft 4kts
14-Nov-17 10:25 35.217931 -80.939937 200 758ft 6kts
14-Nov-17 10:26 35.215934 -80.942555 230 758ft 15kts
14-Nov-17 10:27 35.213033 -80.947651 241 758ft 20kts
14-Nov-17 10:28 35.209721 -80.949683 174 758ft 11kts
14-Nov-17 10:29 35.206367 -80.949395 175 758ft 13kts
14-Nov-17 10:30 35.202242 -80.949065 177 758ft 15kts
14-Nov-17 10:31 35.200204 -80.950825 279 758ft 3kts
14-Nov-17 10:32 35.200441 -80.950903 354 758ft 0kts
14-Nov-17 10:33 35.208433 -80.951570 354 758ft 126kts
14-Nov-17 10:34 35.256854 -80.952623 29 2824ft 200kts
14-Nov-17 10:35 35.275222 -80.887670 79 5863ft 227kts
14-Nov-17 10:36 35.287039 -80.801141 79 8256ft 276kts
14-Nov-17 10:37 35.299820 -80.707488 78 11026ft 298kts
14-Nov-17 10:38 35.314961 -80.596630 78 12277ft 363kts
14-Nov-17 10:39 35.335797 -80.468252 67 13846ft 395kts
14-Nov-17 10:40 35.374225 -80.341947 68 15768ft 409kts
14-Nov-17 10:41 35.414132 -80.210121 68 17520ft 422kts
14-Nov-17 10:42 35.455689 -80.073520 67 19092ft 434kts
14-Nov-17 10:43 35.498396 -79.933553 67 20515ft 447kts
14-Nov-17 10:44 35.553810 -79.797974 39 21785ft 447kts
14-Nov-17 10:45 35.646898 -79.693942 38 22784ft 462kts
14-Nov-17 10:46 35.742535 -79.586906 37 23952ft 470kts
14-Nov-17 10:47 35.839146 -79.478428 37 24996ft 478kts
14-Nov-17 10:48 35.937654 -79.367429 37 25966ft 485kts
14-Nov-17 10:49 36.035350 -79.257010 38 26832ft 492kts
14-Nov-17 10:50 36.101233 -79.182302 38 27363ft 496kts
14-Nov-17 10:51 36.101233 -79.182302 38 27363ft 496kts
14-Nov-17 10:52 36.101233 -79.182302 38 27363ft 496kts
14-Nov-17 10:53 36.101233 -79.182302 38 27363ft 496kts
14-Nov-17 10:54 36.101233 -79.182302 38 27363ft 496kts
14-Nov-17 10:55 36.101233 -79.182302 38 27363ft 496kts
14-Nov-17 10:56 36.101233 -79.182302 38 27363ft 496kts
14-Nov-17 10:57 36.101233 -79.182302 38 27363ft 496kts
14-Nov-17 10:58 36.101233 -79.182302 38 27363ft 496kts
14-Nov-17 10:59 36.101233 -79.182302 38 27363ft 496kts
14-Nov-17 11:00 36.101233 -79.182302 38 27363ft 496kts
14-Nov-17 11:01 36.101233 -79.182302 38 27363ft 496kts
14-Nov-17 11:02 36.184277 -79.087868 38 27968ft 500kts
14-Nov-17 11:03 36.286252 -78.971485 37 28947ft 499kts
14-Nov-17 11:04 36.387703 -78.855300 37 29868ft 498kts
14-Nov-17 11:05 36.488327 -78.739634 37 30764ft 497kts
14-Nov-17 11:06 36.588941 -78.623550 37 31686ft 495kts
14-Nov-17 11:07 36.688787 -78.507923 37 32501ft 493kts
14-Nov-17 11:08 36.788438 -78.392095 37 33241ft 492kts
14-Nov-17 11:09 36.883441 -78.281319 38 33382ft 492kts
14-Nov-17 11:10 36.982471 -78.165383 38 33415ft 492kts
14-Nov-17 11:11 37.081651 -78.048821 38 33372ft 492kts
14-Nov-17 11:12 37.155672 -77.961525 38 33426ft 489kts
14-Nov-17 11:13 37.255140 -77.843879 38 31593ft 496kts
14-Nov-17 11:14 37.354393 -77.725972 38 28980ft 493kts
14-Nov-17 11:15 37.453156 -77.608239 38 26133ft 493kts
14-Nov-17 11:16 37.546957 -77.495790 38 24500ft 440kts
14-Nov-17 11:17 37.646333 -77.429361 6 22773ft 397kts
14-Nov-17 11:18 37.751728 -77.397069 7 20872ft 385kts
14-Nov-17 11:19 37.852896 -77.365803 7 19430ft 372kts
14-Nov-17 11:20 37.950688 -77.335650 7 17721ft 366kts
14-Nov-17 11:21 38.048433 -77.305544 8 15785ft 357kts
14-Nov-17 11:22 38.106443 -77.287486 9 14733ft 348kts
14-Nov-17 11:23 38.173973 -77.266242 9 13483ft 339kts
14-Nov-17 11:24 38.260582 -77.235203 12 12305ft 329kts
14-Nov-17 11:25 38.347006 -77.202511 12 11272ft 324kts
14-Nov-17 11:26 38.431832 -77.169999 13 10738ft 320kts
14-Nov-17 11:27 38.515581 -77.137623 13 10361ft 313kts
14-Nov-17 11:28 38.592248 -77.107865 13 9745ft 284kts
14-Nov-17 11:29 38.665143 -77.079818 13 8624ft 276kts
14-Nov-17 11:30 38.738657 -77.066074 3 7526ft 271kts
14-Nov-17 11:31 38.804051 -77.094811 327 6493ft 265kts
14-Nov-17 11:32 38.859992 -77.152531 316 5203ft 263kts
14-Nov-17 11:33 38.910110 -77.214896 317 3803ft 243kts
14-Nov-17 11:34 38.961822 -77.249804 27 3029ft 210kts
14-Nov-17 11:35 38.984749 -77.183276 94 3017ft 208kts
14-Nov-17 11:36 38.955863 -77.138700 144 2558ft 173kts
14-Nov-17 11:37 38.917861 -77.109045 143 1647ft 149kts
14-Nov-17 11:38 38.899659 -77.066434 123 920ft 140kts
14-Nov-17 11:39 38.867173 -77.039366 174 214ft 146kts
14-Nov-17 11:40 38.844253 -77.037208 206 23ft 12kts
14-Nov-17 11:41 38.844195 -77.038310 342 23ft 1kts
14-Nov-17 11:42 38.844906 -77.038458 354 23ft 6kts
14-Nov-17 11:43 38.846265 -77.038600 353 23ft 11kts
14-Nov-17 11:44 38.848703 -77.039446 353 23ft 8kts
14-Nov-17 11:45 38.850812 -77.039659 358 23ft 7kts
14-Nov-17 11:46 38.853043 -77.039943 353 23ft 10kts
14-Nov-17 11:47 38.856273 -77.040445 353 23ft 12kts
14-Nov-17 11:48 38.856878 -77.041444 233 23ft 0kts
14-Nov-17 11:49 38.856691 -77.041728 229 23ft 0kts
14-Nov-17 11:50 38.856691 -77.041728 229 23ft 0kts
14-Nov-17 11:51 38.856691 -77.041728 229 23ft 0kts
14-Nov-17 11:52 38.856691 -77.041728 229 23ft 0kts
14-Nov-17 11:53 38.856691 -77.041728 229 23ft 0kts

Navigation Log

Ident Type
Flight plan parsing failed, navigation log unavailable